Flight Track Log - Related Links

Times and Time Zones

All times are in EDT time to prevent confusion due to time zone crossing. See the N27XP flight status page for this flight to view local times or setup timezone preferences in your user account.

Time Position Orientation Groundspeed Altitude Reporting Facility
EDT Latitude Longitude Course Direction KTS MPH feet Rate Location/Type
Fri 03:58:11 PM 35.4781 -81.1697 224° Southwest 233 268 1,300  Level Atlanta Center
Fri 03:58:54 PM 35.4517 -81.2011 224° Southwest 172 198 3,400 2,374 Climbing Atlanta Center
Fri 03:59:42 PM 35.4192 -81.2381 223° Southwest 192 221 4,900 828 Climbing Atlanta Center
Fri 04:00:50 PM 35.3703 -81.2881 220° Southwest 202 232 5,000 49 Climbing Atlanta Center
Fri 04:01:44 PM 35.3225 -81.2947 186° South 218 251 5,000  Level Atlanta Center
Fri 04:02:51 PM 35.2608 -81.2458 147° Southeast 258 297 5,000  Level Atlanta Center
Fri 04:03:46 PM 35.2322 -81.1833 119° Southeast 270 311 5,000  Level Atlanta Center
Fri 04:04:59 PM 35.2464 -81.0683 81° East 283 326 5,000  Level Atlanta Center
Fri 04:05:54 PM 35.2503 -80.9792 87° East 277 319 5,000  Level Atlanta Center
Fri 04:06:49 PM 35.2564 -80.8925 85° East 280 322 5,000  Level Atlanta Center
Fri 04:07:50 PM 35.2275 -80.8175 115° Southeast 261 300 5,000 298 Level Atlanta Center
Fri 04:08:50 PM 35.2064 -80.7292 106° East 272 313 5,600 945 Climbing Atlanta Center
Fri 04:09:57 PM 35.2078 -80.6300 89° East 287 330 7,000 689 Climbing Atlanta Center
Fri 04:10:52 PM 35.2072 -80.5358 90° East 288 331 7,000  Level Atlanta Center
Fri 04:11:53 PM 35.2086 -80.4394 89° East 289 333 7,000  Level Atlanta Center
Fri 04:13:00 PM 35.2072 -80.3607 91° East  Level FlightAware Approximate
Fri 04:20:00 PM 35.2000 -79.8671 90° East  Level FlightAware Approximate
Fri 04:21:00 PM 35.2000 -79.7966 90° East  Level FlightAware Approximate
Fri 04:22:00 PM 35.2001 -79.7261 90° East  Level FlightAware Approximate
Fri 04:23:00 PM 35.2001 -79.6556 90° East  Level FlightAware Approximate

Login

Don't have an account? Register now (free) for customized features, flight alerts, and more!